Linthicum, Maryland
Current Conditions -  °F | °C
As of 2:54 PM on Thursday 27 Nov 2014 (Local Time) from KBWI Reporting Station
Broken Clouds Broken Clouds  
Wind Chill: 38°   Ceiling: 4100
Heat Index: 43°   Visibility: 10mi
Dew Point: 28°   Wind: 9mph
Humidity: 56%   Direction: 320°NW
Pressure: 30.04"   Gusts: NA
Location:  39.2087°N, 76.6692°W
Report Text: KBWI 271954Z 32008KT 10SM BKN041 BKN250 06/M02 A3004 RMK AO2 SLP171 T00611022
Loading
Personal Weather Stations






























Interactive Weather Map New forecast layout! Learn more

10-Day Weather Forecast

Advertisements
Track Severe Weather on mobile